sensor_id;sensor_type;location;lat;lon;timestamp;temperature;humidity
80958;DHT22;70419;42.700;23.316;2023-08-06T00:01:39;19.90;71.30
80958;DHT22;70419;42.700;23.316;2023-08-06T00:04:05;20.00;70.60
80958;DHT22;70419;42.700;23.316;2023-08-06T00:06:31;20.10;71.50
80958;DHT22;70419;42.700;23.316;2023-08-06T00:08:56;20.20;70.70
80958;DHT22;70419;42.700;23.316;2023-08-06T00:11:22;20.30;70.00
80958;DHT22;70419;42.700;23.316;2023-08-06T00:13:47;20.40;68.70
80958;DHT22;70419;42.700;23.316;2023-08-06T00:16:13;20.50;68.90
80958;DHT22;70419;42.700;23.316;2023-08-06T00:18:39;20.50;68.90
80958;DHT22;70419;42.700;23.316;2023-08-06T00:21:05;20.60;68.90
80958;DHT22;70419;42.700;23.316;2023-08-06T00:23:31;20.70;68.90
80958;DHT22;70419;42.700;23.316;2023-08-06T00:25:56;20.80;68.60
80958;DHT22;70419;42.700;23.316;2023-08-06T00:28:22;20.80;68.90
80958;DHT22;70419;42.700;23.316;2023-08-06T00:30:54;20.80;68.60
80958;DHT22;70419;42.700;23.316;2023-08-06T00:33:20;21.00;68.30
80958;DHT22;70419;42.700;23.316;2023-08-06T00:35:45;21.00;68.30
80958;DHT22;70419;42.700;23.316;2023-08-06T00:38:12;21.00;68.20
80958;DHT22;70419;42.700;23.316;2023-08-06T00:40:37;21.00;67.60
80958;DHT22;70419;42.700;23.316;2023-08-06T00:43:03;20.90;67.60
80958;DHT22;70419;42.700;23.316;2023-08-06T00:45:28;21.00;67.80
80958;DHT22;70419;42.700;23.316;2023-08-06T00:47:55;21.00;68.00
80958;DHT22;70419;42.700;23.316;2023-08-06T00:50:20;21.10;68.00
80958;DHT22;70419;42.700;23.316;2023-08-06T00:52:49;21.20;67.40
80958;DHT22;70419;42.700;23.316;2023-08-06T00:55:14;21.10;68.00
80958;DHT22;70419;42.700;23.316;2023-08-06T00:57:40;21.20;66.50
80958;DHT22;70419;42.700;23.316;2023-08-06T01:00:06;21.20;67.20
80958;DHT22;70419;42.700;23.316;2023-08-06T01:02:32;21.10;67.40
80958;DHT22;70419;42.700;23.316;2023-08-06T01:04:57;21.00;66.80
80958;DHT22;70419;42.700;23.316;2023-08-06T01:09:59;21.00;66.80
80958;DHT22;70419;42.700;23.316;2023-08-06T01:12:32;21.00;66.40
80958;DHT22;70419;42.700;23.316;2023-08-06T01:15:02;21.00;65.90
80958;DHT22;70419;42.700;23.316;2023-08-06T01:17:33;20.80;66.50
80958;DHT22;70419;42.700;23.316;2023-08-06T01:19:59;20.80;67.10
80958;DHT22;70419;42.700;23.316;2023-08-06T01:22:24;20.90;67.60
80958;DHT22;70419;42.700;23.316;2023-08-06T01:24:50;20.80;66.90
80958;DHT22;70419;42.700;23.316;2023-08-06T01:27:27;20.80;67.10
80958;DHT22;70419;42.700;23.316;2023-08-06T01:29:56;20.80;67.70
80958;DHT22;70419;42.700;23.316;2023-08-06T01:32:23;20.90;67.80
80958;DHT22;70419;42.700;23.316;2023-08-06T01:34:50;21.00;67.40
80958;DHT22;70419;42.700;23.316;2023-08-06T01:37:16;21.00;67.20
80958;DHT22;70419;42.700;23.316;2023-08-06T01:39:42;20.90;67.60
80958;DHT22;70419;42.700;23.316;2023-08-06T01:42:08;21.00;67.80
80958;DHT22;70419;42.700;23.316;2023-08-06T01:44:33;21.10;67.60
80958;DHT22;70419;42.700;23.316;2023-08-06T01:46:59;21.10;68.20
80958;DHT22;70419;42.700;23.316;2023-08-06T01:49:24;21.20;67.60
80958;DHT22;70419;42.700;23.316;2023-08-06T01:51:50;21.20;67.50
80958;DHT22;70419;42.700;23.316;2023-08-06T01:54:16;21.20;67.40
80958;DHT22;70419;42.700;23.316;2023-08-06T01:56:41;21.10;67.70
80958;DHT22;70419;42.700;23.316;2023-08-06T01:59:07;21.10;67.00
80958;DHT22;70419;42.700;23.316;2023-08-06T02:01:32;21.00;67.70
80958;DHT22;70419;42.700;23.316;2023-08-06T02:03:58;20.90;68.00
80958;DHT22;70419;42.700;23.316;2023-08-06T02:06:23;20.90;68.60
80958;DHT22;70419;42.700;23.316;2023-08-06T02:08:49;20.80;68.80
80958;DHT22;70419;42.700;23.316;2023-08-06T02:11:15;20.70;69.30
80958;DHT22;70419;42.700;23.316;2023-08-06T02:13:40;20.70;69.20
80958;DHT22;70419;42.700;23.316;2023-08-06T02:16:07;20.70;69.70
80958;DHT22;70419;42.700;23.316;2023-08-06T02:18:33;20.80;69.50
80958;DHT22;70419;42.700;23.316;2023-08-06T02:20:59;20.90;68.70
80958;DHT22;70419;42.700;23.316;2023-08-06T02:23:25;20.80;68.00
80958;DHT22;70419;42.700;23.316;2023-08-06T02:26:00;20.80;68.00
80958;DHT22;70419;42.700;23.316;2023-08-06T02:28:26;20.70;69.00
80958;DHT22;70419;42.700;23.316;2023-08-06T02:30:52;20.20;71.40
80958;DHT22;70419;42.700;23.316;2023-08-06T02:33:17;20.00;74.70
80958;DHT22;70419;42.700;23.316;2023-08-06T02:35:43;19.90;77.00
80958;DHT22;70419;42.700;23.316;2023-08-06T02:38:08;19.80;75.00
80958;DHT22;70419;42.700;23.316;2023-08-06T02:40:34;19.80;76.30
80958;DHT22;70419;42.700;23.316;2023-08-06T02:42:59;19.80;75.70
80958;DHT22;70419;42.700;23.316;2023-08-06T02:45:25;19.80;75.50
80958;DHT22;70419;42.700;23.316;2023-08-06T02:47:51;19.80;75.30
80958;DHT22;70419;42.700;23.316;2023-08-06T02:50:16;19.70;75.40
80958;DHT22;70419;42.700;23.316;2023-08-06T02:52:42;19.70;75.90
80958;DHT22;70419;42.700;23.316;2023-08-06T02:55:07;19.70;75.40
80958;DHT22;70419;42.700;23.316;2023-08-06T02:57:33;19.80;75.20
80958;DHT22;70419;42.700;23.316;2023-08-06T02:59:58;19.90;75.50
80958;DHT22;70419;42.700;23.316;2023-08-06T03:02:24;20.00;75.50
80958;DHT22;70419;42.700;23.316;2023-08-06T03:04:50;20.20;75.40
80958;DHT22;70419;42.700;23.316;2023-08-06T03:07:15;20.20;75.00
80958;DHT22;70419;42.700;23.316;2023-08-06T03:09:41;20.40;74.40
80958;DHT22;70419;42.700;23.316;2023-08-06T03:12:06;20.50;73.20
80958;DHT22;70419;42.700;23.316;2023-08-06T03:14:32;20.50;73.40
80958;DHT22;70419;42.700;23.316;2023-08-06T03:16:58;20.50;73.30
80958;DHT22;70419;42.700;23.316;2023-08-06T03:19:23;20.60;72.90
80958;DHT22;70419;42.700;23.316;2023-08-06T03:21:49;20.70;71.40
80958;DHT22;70419;42.700;23.316;2023-08-06T03:24:14;20.70;71.90
80958;DHT22;70419;42.700;23.316;2023-08-06T03:26:40;20.70;72.60
80958;DHT22;70419;42.700;23.316;2023-08-06T03:29:05;20.70;71.40
80958;DHT22;70419;42.700;23.316;2023-08-06T03:31:31;20.80;70.60
80958;DHT22;70419;42.700;23.316;2023-08-06T03:33:56;20.70;71.00
80958;DHT22;70419;42.700;23.316;2023-08-06T03:36:22;20.60;71.80
80958;DHT22;70419;42.700;23.316;2023-08-06T03:38:48;20.40;72.70
80958;DHT22;70419;42.700;23.316;2023-08-06T03:41:13;20.30;72.00
80958;DHT22;70419;42.700;23.316;2023-08-06T03:43:39;20.50;72.10
80958;DHT22;70419;42.700;23.316;2023-08-06T03:46:04;20.60;71.60
80958;DHT22;70419;42.700;23.316;2023-08-06T03:48:30;20.60;70.90
80958;DHT22;70419;42.700;23.316;2023-08-06T03:50:55;20.70;71.70
80958;DHT22;70419;42.700;23.316;2023-08-06T03:53:21;20.70;70.70
80958;DHT22;70419;42.700;23.316;2023-08-06T03:55:46;20.70;70.50
80958;DHT22;70419;42.700;23.316;2023-08-06T03:58:12;20.80;71.20
80958;DHT22;70419;42.700;23.316;2023-08-06T04:00:37;20.90;71.20
80958;DHT22;70419;42.700;23.316;2023-08-06T04:03:03;21.00;71.50
80958;DHT22;70419;42.700;23.316;2023-08-06T04:05:31;21.10;70.70
80958;DHT22;70419;42.700;23.316;2023-08-06T04:07:56;21.20;70.70
80958;DHT22;70419;42.700;23.316;2023-08-06T04:10:22;21.20;70.40
80958;DHT22;70419;42.700;23.316;2023-08-06T04:12:47;21.20;69.80
80958;DHT22;70419;42.700;23.316;2023-08-06T04:15:13;21.30;70.30
80958;DHT22;70419;42.700;23.316;2023-08-06T04:17:38;21.40;69.30
80958;DHT22;70419;42.700;23.316;2023-08-06T04:20:04;21.30;68.20
80958;DHT22;70419;42.700;23.316;2023-08-06T04:22:30;21.30;68.20
80958;DHT22;70419;42.700;23.316;2023-08-06T04:24:56;21.30;69.10
80958;DHT22;70419;42.700;23.316;2023-08-06T04:27:21;21.30;68.20
80958;DHT22;70419;42.700;23.316;2023-08-06T04:29:47;21.40;68.70
80958;DHT22;70419;42.700;23.316;2023-08-06T04:32:12;21.60;69.10
80958;DHT22;70419;42.700;23.316;2023-08-06T04:34:38;21.60;68.80
80958;DHT22;70419;42.700;23.316;2023-08-06T04:37:04;21.70;68.40
80958;DHT22;70419;42.700;23.316;2023-08-06T04:39:29;21.80;67.80
80958;DHT22;70419;42.700;23.316;2023-08-06T04:41:55;21.90;67.00
80958;DHT22;70419;42.700;23.316;2023-08-06T04:44:22;22.00;66.60
80958;DHT22;70419;42.700;23.316;2023-08-06T04:46:48;22.00;66.60
80958;DHT22;70419;42.700;23.316;2023-08-06T04:49:14;22.00;66.70
80958;DHT22;70419;42.700;23.316;2023-08-06T04:51:40;22.10;66.50
80958;DHT22;70419;42.700;23.316;2023-08-06T04:54:05;22.20;66.30
80958;DHT22;70419;42.700;23.316;2023-08-06T04:56:33;22.30;66.00
80958;DHT22;70419;42.700;23.316;2023-08-06T04:58:59;22.30;65.80
80958;DHT22;70419;42.700;23.316;2023-08-06T05:01:24;22.50;65.90
80958;DHT22;70419;42.700;23.316;2023-08-06T05:03:50;22.50;65.70
80958;DHT22;70419;42.700;23.316;2023-08-06T05:06:16;22.60;65.70
80958;DHT22;70419;42.700;23.316;2023-08-06T05:08:42;22.60;65.40
80958;DHT22;70419;42.700;23.316;2023-08-06T05:11:08;22.70;65.50
80958;DHT22;70419;42.700;23.316;2023-08-06T05:13:35;22.90;64.90
80958;DHT22;70419;42.700;23.316;2023-08-06T05:16:00;23.00;64.20
80958;DHT22;70419;42.700;23.316;2023-08-06T05:18:27;23.10;63.60
80958;DHT22;70419;42.700;23.316;2023-08-06T05:20:53;23.20;63.10
80958;DHT22;70419;42.700;23.316;2023-08-06T05:23:19;23.30;62.80
80958;DHT22;70419;42.700;23.316;2023-08-06T05:25:44;23.40;62.70
80958;DHT22;70419;42.700;23.316;2023-08-06T05:28:10;23.50;62.20
80958;DHT22;70419;42.700;23.316;2023-08-06T05:30:38;23.60;62.40
80958;DHT22;70419;42.700;23.316;2023-08-06T05:33:04;23.70;62.60
80958;DHT22;70419;42.700;23.316;2023-08-06T05:35:30;24.00;61.30
80958;DHT22;70419;42.700;23.316;2023-08-06T05:37:55;24.20;60.20
80958;DHT22;70419;42.700;23.316;2023-08-06T05:40:21;24.50;59.40
80958;DHT22;70419;42.700;23.316;2023-08-06T05:42:46;24.80;58.80
80958;DHT22;70419;42.700;23.316;2023-08-06T05:45:12;25.20;57.10
80958;DHT22;70419;42.700;23.316;2023-08-06T05:47:37;25.50;56.50
80958;DHT22;70419;42.700;23.316;2023-08-06T05:50:03;25.80;55.40
80958;DHT22;70419;42.700;23.316;2023-08-06T05:52:29;26.00;54.30
80958;DHT22;70419;42.700;23.316;2023-08-06T05:54:55;26.30;53.00
80958;DHT22;70419;42.700;23.316;2023-08-06T05:57:21;26.20;52.10
80958;DHT22;70419;42.700;23.316;2023-08-06T05:59:46;26.40;51.70
80958;DHT22;70419;42.700;23.316;2023-08-06T06:02:12;26.50;50.30
80958;DHT22;70419;42.700;23.316;2023-08-06T06:04:40;26.60;50.60
80958;DHT22;70419;42.700;23.316;2023-08-06T06:07:05;26.70;50.70
80958;DHT22;70419;42.700;23.316;2023-08-06T06:09:31;26.70;50.30
80958;DHT22;70419;42.700;23.316;2023-08-06T06:11:57;26.80;50.60
80958;DHT22;70419;42.700;23.316;2023-08-06T06:14:22;26.80;50.30
80958;DHT22;70419;42.700;23.316;2023-08-06T06:16:48;26.80;49.50
80958;DHT22;70419;42.700;23.316;2023-08-06T06:19:13;26.60;48.50
80958;DHT22;70419;42.700;23.316;2023-08-06T06:21:39;26.40;48.70
80958;DHT22;70419;42.700;23.316;2023-08-06T06:24:05;26.40;49.70
80958;DHT22;70419;42.700;23.316;2023-08-06T06:26:31;26.60;49.70
80958;DHT22;70419;42.700;23.316;2023-08-06T06:28:57;26.80;49.70
80958;DHT22;70419;42.700;23.316;2023-08-06T06:31:23;27.00;48.70
80958;DHT22;70419;42.700;23.316;2023-08-06T06:33:49;27.40;48.30
80958;DHT22;70419;42.700;23.316;2023-08-06T06:36:14;27.90;47.00
80958;DHT22;70419;42.700;23.316;2023-08-06T06:38:40;28.00;46.40
80958;DHT22;70419;42.700;23.316;2023-08-06T06:41:05;28.30;45.10
80958;DHT22;70419;42.700;23.316;2023-08-06T06:43:31;28.40;44.60
80958;DHT22;70419;42.700;23.316;2023-08-06T06:45:57;28.30;43.70
80958;DHT22;70419;42.700;23.316;2023-08-06T06:48:26;28.20;43.70
80958;DHT22;70419;42.700;23.316;2023-08-06T06:50:52;28.00;43.70
80958;DHT22;70419;42.700;23.316;2023-08-06T06:53:17;27.90;44.40
80958;DHT22;70419;42.700;23.316;2023-08-06T06:55:43;27.80;44.30
80958;DHT22;70419;42.700;23.316;2023-08-06T06:58:08;27.80;44.70
80958;DHT22;70419;42.700;23.316;2023-08-06T07:00:37;27.60;44.60
80958;DHT22;70419;42.700;23.316;2023-08-06T07:03:03;27.60;44.40
80958;DHT22;70419;42.700;23.316;2023-08-06T07:05:28;27.80;44.40
80958;DHT22;70419;42.700;23.316;2023-08-06T07:07:54;28.20;43.80
80958;DHT22;70419;42.700;23.316;2023-08-06T07:10:21;28.60;42.50
80958;DHT22;70419;42.700;23.316;2023-08-06T07:12:46;28.80;41.60
80958;DHT22;70419;42.700;23.316;2023-08-06T07:15:12;29.00;41.40
80958;DHT22;70419;42.700;23.316;2023-08-06T07:17:38;29.10;40.70
80958;DHT22;70419;42.700;23.316;2023-08-06T07:20:06;29.10;40.40
80958;DHT22;70419;42.700;23.316;2023-08-06T07:22:32;29.30;40.20
80958;DHT22;70419;42.700;23.316;2023-08-06T07:24:58;29.20;40.10
80958;DHT22;70419;42.700;23.316;2023-08-06T07:27:24;28.70;39.60
80958;DHT22;70419;42.700;23.316;2023-08-06T07:29:50;27.90;40.70
80958;DHT22;70419;42.700;23.316;2023-08-06T07:32:16;27.40;41.90
80958;DHT22;70419;42.700;23.316;2023-08-06T07:34:41;27.30;42.10
80958;DHT22;70419;42.700;23.316;2023-08-06T07:37:08;26.90;42.40
80958;DHT22;70419;42.700;23.316;2023-08-06T07:39:33;26.60;42.80
80958;DHT22;70419;42.700;23.316;2023-08-06T07:41:59;26.50;43.30
80958;DHT22;70419;42.700;23.316;2023-08-06T07:44:25;26.70;43.20
80958;DHT22;70419;42.700;23.316;2023-08-06T07:46:50;26.90;42.50
80958;DHT22;70419;42.700;23.316;2023-08-06T07:49:16;27.40;41.30
80958;DHT22;70419;42.700;23.316;2023-08-06T07:51:41;28.10;40.50
80958;DHT22;70419;42.700;23.316;2023-08-06T07:54:07;29.40;37.80
80958;DHT22;70419;42.700;23.316;2023-08-06T07:56:32;30.10;36.50
80958;DHT22;70419;42.700;23.316;2023-08-06T07:58:58;30.30;37.20
80958;DHT22;70419;42.700;23.316;2023-08-06T08:01:24;30.50;36.80
80958;DHT22;70419;42.700;23.316;2023-08-06T08:03:49;30.40;36.90
80958;DHT22;70419;42.700;23.316;2023-08-06T08:06:15;30.40;37.10
80958;DHT22;70419;42.700;23.316;2023-08-06T08:08:40;30.10;36.60
80958;DHT22;70419;42.700;23.316;2023-08-06T08:11:06;30.40;36.90
80958;DHT22;70419;42.700;23.316;2023-08-06T08:13:32;31.60;34.80
80958;DHT22;70419;42.700;23.316;2023-08-06T08:15:57;33.20;32.50
80958;DHT22;70419;42.700;23.316;2023-08-06T08:18:24;34.20;30.60
80958;DHT22;70419;42.700;23.316;2023-08-06T08:20:49;34.70;29.60
80958;DHT22;70419;42.700;23.316;2023-08-06T08:23:15;35.20;28.90
80958;DHT22;70419;42.700;23.316;2023-08-06T08:25:40;36.20;27.50
80958;DHT22;70419;42.700;23.316;2023-08-06T08:28:06;36.10;27.30
80958;DHT22;70419;42.700;23.316;2023-08-06T08:30:32;36.80;26.80
80958;DHT22;70419;42.700;23.316;2023-08-06T08:32:58;37.50;27.00
80958;DHT22;70419;42.700;23.316;2023-08-06T08:35:23;38.90;24.80
80958;DHT22;70419;42.700;23.316;2023-08-06T08:37:49;40.20;23.20
80958;DHT22;70419;42.700;23.316;2023-08-06T08:40:15;40.20;22.70
80958;DHT22;70419;42.700;23.316;2023-08-06T08:42:41;41.00;22.30
80958;DHT22;70419;42.700;23.316;2023-08-06T08:45:11;41.50;21.70
80958;DHT22;70419;42.700;23.316;2023-08-06T08:47:37;42.70;20.80
80958;DHT22;70419;42.700;23.316;2023-08-06T08:50:04;43.90;19.80
80958;DHT22;70419;42.700;23.316;2023-08-06T08:52:30;44.80;19.00
80958;DHT22;70419;42.700;23.316;2023-08-06T08:54:57;45.90;18.10
80958;DHT22;70419;42.700;23.316;2023-08-06T08:57:23;46.60;17.70
80958;DHT22;70419;42.700;23.316;2023-08-06T08:59:48;47.40;17.20
80958;DHT22;70419;42.700;23.316;2023-08-06T09:02:14;48.20;16.40
80958;DHT22;70419;42.700;23.316;2023-08-06T09:04:40;48.40;15.70
80958;DHT22;70419;42.700;23.316;2023-08-06T09:07:07;47.80;16.30
80958;DHT22;70419;42.700;23.316;2023-08-06T09:09:33;48.30;16.10
80958;DHT22;70419;42.700;23.316;2023-08-06T09:12:00;49.10;15.70
80958;DHT22;70419;42.700;23.316;2023-08-06T09:14:26;49.70;15.20
80958;DHT22;70419;42.700;23.316;2023-08-06T09:16:52;50.40;14.60
80958;DHT22;70419;42.700;23.316;2023-08-06T09:19:17;50.90;14.30
80958;DHT22;70419;42.700;23.316;2023-08-06T09:21:44;51.70;13.60
80958;DHT22;70419;42.700;23.316;2023-08-06T09:24:13;52.50;13.10
80958;DHT22;70419;42.700;23.316;2023-08-06T09:26:40;53.10;12.90
80958;DHT22;70419;42.700;23.316;2023-08-06T09:29:06;53.30;12.80
80958;DHT22;70419;42.700;23.316;2023-08-06T09:31:42;52.80;12.40
80958;DHT22;70419;42.700;23.316;2023-08-06T09:34:14;52.40;12.80
80958;DHT22;70419;42.700;23.316;2023-08-06T09:36:43;52.60;12.70
80958;DHT22;70419;42.700;23.316;2023-08-06T09:39:14;51.50;13.00
80958;DHT22;70419;42.700;23.316;2023-08-06T09:41:41;50.20;13.80
80958;DHT22;70419;42.700;23.316;2023-08-06T09:44:16;50.40;13.60
80958;DHT22;70419;42.700;23.316;2023-08-06T09:46:54;51.30;13.10
80958;DHT22;70419;42.700;23.316;2023-08-06T09:49:20;51.90;12.90
80958;DHT22;70419;42.700;23.316;2023-08-06T09:51:46;53.40;12.10
80958;DHT22;70419;42.700;23.316;2023-08-06T09:54:16;53.80;11.30
80958;DHT22;70419;42.700;23.316;2023-08-06T09:56:42;54.20;11.10
80958;DHT22;70419;42.700;23.316;2023-08-06T09:59:07;54.10;11.40
80958;DHT22;70419;42.700;23.316;2023-08-06T10:01:34;53.00;11.60
80958;DHT22;70419;42.700;23.316;2023-08-06T10:04:04;50.50;12.90
80958;DHT22;70419;42.700;23.316;2023-08-06T10:06:31;48.40;13.90
80958;DHT22;70419;42.700;23.316;2023-08-06T10:08:58;46.40;15.10
80958;DHT22;70419;42.700;23.316;2023-08-06T10:11:24;44.40;16.00
80958;DHT22;70419;42.700;23.316;2023-08-06T10:13:54;42.70;17.30
80958;DHT22;70419;42.700;23.316;2023-08-06T10:16:20;41.20;18.30
80958;DHT22;70419;42.700;23.316;2023-08-06T10:18:47;40.10;19.30
80958;DHT22;70419;42.700;23.316;2023-08-06T10:21:12;39.20;20.10
80958;DHT22;70419;42.700;23.316;2023-08-06T10:23:40;40.60;19.40
80958;DHT22;70419;42.700;23.316;2023-08-06T10:26:05;42.30;18.10
80958;DHT22;70419;42.700;23.316;2023-08-06T10:28:35;41.90;18.30
80958;DHT22;70419;42.700;23.316;2023-08-06T10:31:01;41.10;19.00
80958;DHT22;70419;42.700;23.316;2023-08-06T10:33:40;40.00;19.80
80958;DHT22;70419;42.700;23.316;2023-08-06T10:36:06;39.30;20.60
80958;DHT22;70419;42.700;23.316;2023-08-06T10:38:35;39.10;20.60
80958;DHT22;70419;42.700;23.316;2023-08-06T10:41:03;38.70;20.80
80958;DHT22;70419;42.700;23.316;2023-08-06T10:45:54;38.00;21.80
80958;DHT22;70419;42.700;23.316;2023-08-06T10:51:01;36.80;22.80
80958;DHT22;70419;42.700;23.316;2023-08-06T10:53:27;36.10;23.50
80958;DHT22;70419;42.700;23.316;2023-08-06T10:55:53;35.60;24.10
80958;DHT22;70419;42.700;23.316;2023-08-06T10:58:18;35.10;24.70
80958;DHT22;70419;42.700;23.316;2023-08-06T11:00:44;34.40;25.20
80958;DHT22;70419;42.700;23.316;2023-08-06T11:03:10;34.20;25.50
80958;DHT22;70419;42.700;23.316;2023-08-06T11:05:36;34.10;25.60
80958;DHT22;70419;42.700;23.316;2023-08-06T11:08:02;34.00;25.70
80958;DHT22;70419;42.700;23.316;2023-08-06T11:10:27;34.20;25.70
80958;DHT22;70419;42.700;23.316;2023-08-06T11:12:53;34.00;25.70
80958;DHT22;70419;42.700;23.316;2023-08-06T11:15:20;33.80;26.00
80958;DHT22;70419;42.700;23.316;2023-08-06T11:17:46;34.00;26.30
80958;DHT22;70419;42.700;23.316;2023-08-06T11:20:13;33.90;26.50
80958;DHT22;70419;42.700;23.316;2023-08-06T11:22:38;33.40;27.00
80958;DHT22;70419;42.700;23.316;2023-08-06T11:25:05;33.20;27.50
80958;DHT22;70419;42.700;23.316;2023-08-06T11:27:32;32.60;28.00
80958;DHT22;70419;42.700;23.316;2023-08-06T11:29:57;32.10;29.20
80958;DHT22;70419;42.700;23.316;2023-08-06T11:32:23;31.80;30.00
80958;DHT22;70419;42.700;23.316;2023-08-06T11:34:49;31.70;30.00
80958;DHT22;70419;42.700;23.316;2023-08-06T11:37:15;31.70;29.70
80958;DHT22;70419;42.700;23.316;2023-08-06T11:39:44;31.90;29.00
80958;DHT22;70419;42.700;23.316;2023-08-06T11:42:11;32.00;28.30
80958;DHT22;70419;42.700;23.316;2023-08-06T11:44:37;32.50;27.40
80958;DHT22;70419;42.700;23.316;2023-08-06T11:47:03;33.70;26.30
80958;DHT22;70419;42.700;23.316;2023-08-06T11:49:46;34.80;25.10
80958;DHT22;70419;42.700;23.316;2023-08-06T11:52:30;37.10;22.80
80958;DHT22;70419;42.700;23.316;2023-08-06T11:55:02;39.80;20.60
80958;DHT22;70419;42.700;23.316;2023-08-06T11:57:29;42.90;18.10
80958;DHT22;70419;42.700;23.316;2023-08-06T12:00:07;45.20;16.30
80958;DHT22;70419;42.700;23.316;2023-08-06T12:02:34;46.40;15.70
80958;DHT22;70419;42.700;23.316;2023-08-06T12:05:11;47.80;14.60
80958;DHT22;70419;42.700;23.316;2023-08-06T12:07:46;47.80;14.50
80958;DHT22;70419;42.700;23.316;2023-08-06T12:10:13;48.50;14.00
80958;DHT22;70419;42.700;23.316;2023-08-06T12:12:38;49.20;13.40
80958;DHT22;70419;42.700;23.316;2023-08-06T12:15:04;48.00;14.00
80958;DHT22;70419;42.700;23.316;2023-08-06T12:17:31;48.70;13.30
80958;DHT22;70419;42.700;23.316;2023-08-06T12:19:57;48.90;13.30
80958;DHT22;70419;42.700;23.316;2023-08-06T12:22:23;47.40;14.10
80958;DHT22;70419;42.700;23.316;2023-08-06T12:24:48;44.80;15.50
80958;DHT22;70419;42.700;23.316;2023-08-06T12:27:14;43.00;16.80
80958;DHT22;70419;42.700;23.316;2023-08-06T12:29:42;41.40;17.70
80958;DHT22;70419;42.700;23.316;2023-08-06T12:32:11;40.10;18.90
80958;DHT22;70419;42.700;23.316;2023-08-06T12:34:41;38.70;20.30
80958;DHT22;70419;42.700;23.316;2023-08-06T12:37:07;37.60;21.30
80958;DHT22;70419;42.700;23.316;2023-08-06T12:39:33;37.40;21.20
80958;DHT22;70419;42.700;23.316;2023-08-06T12:41:59;36.70;21.80
80958;DHT22;70419;42.700;23.316;2023-08-06T12:44:25;35.70;22.90
80958;DHT22;70419;42.700;23.316;2023-08-06T12:46:51;34.70;23.00
80958;DHT22;70419;42.700;23.316;2023-08-06T12:49:17;34.10;24.20
80958;DHT22;70419;42.700;23.316;2023-08-06T12:51:43;33.60;24.70
80958;DHT22;70419;42.700;23.316;2023-08-06T12:54:08;33.20;25.10
80958;DHT22;70419;42.700;23.316;2023-08-06T12:56:34;33.20;25.60
80958;DHT22;70419;42.700;23.316;2023-08-06T12:59:00;33.10;26.50
80958;DHT22;70419;42.700;23.316;2023-08-06T13:01:25;33.00;25.70
80958;DHT22;70419;42.700;23.316;2023-08-06T13:03:51;32.80;26.00
80958;DHT22;70419;42.700;23.316;2023-08-06T13:06:16;32.60;26.50
80958;DHT22;70419;42.700;23.316;2023-08-06T13:08:42;32.70;26.40
80958;DHT22;70419;42.700;23.316;2023-08-06T13:11:08;32.80;26.50
80958;DHT22;70419;42.700;23.316;2023-08-06T13:13:33;33.10;26.30
80958;DHT22;70419;42.700;23.316;2023-08-06T13:16:00;33.50;25.70
80958;DHT22;70419;42.700;23.316;2023-08-06T13:18:26;34.10;25.10
80958;DHT22;70419;42.700;23.316;2023-08-06T13:20:53;34.40;24.80
80958;DHT22;70419;42.700;23.316;2023-08-06T13:23:19;34.50;24.60
80958;DHT22;70419;42.700;23.316;2023-08-06T13:25:45;34.20;24.90
80958;DHT22;70419;42.700;23.316;2023-08-06T13:28:10;33.80;25.10
80958;DHT22;70419;42.700;23.316;2023-08-06T13:30:36;33.40;25.50
80958;DHT22;70419;42.700;23.316;2023-08-06T13:33:09;32.90;26.10
80958;DHT22;70419;42.700;23.316;2023-08-06T13:35:35;32.70;26.60
80958;DHT22;70419;42.700;23.316;2023-08-06T13:38:01;32.60;26.60
80958;DHT22;70419;42.700;23.316;2023-08-06T13:40:30;33.00;26.60
80958;DHT22;70419;42.700;23.316;2023-08-06T13:42:55;34.60;25.20
80958;DHT22;70419;42.700;23.316;2023-08-06T13:45:21;36.30;23.30
80958;DHT22;70419;42.700;23.316;2023-08-06T13:47:47;37.20;22.80
80958;DHT22;70419;42.700;23.316;2023-08-06T13:50:13;38.50;21.40
80958;DHT22;70419;42.700;23.316;2023-08-06T13:52:38;40.70;19.60
80958;DHT22;70419;42.700;23.316;2023-08-06T13:55:04;42.80;17.90
80958;DHT22;70419;42.700;23.316;2023-08-06T13:57:30;44.50;16.50
80958;DHT22;70419;42.700;23.316;2023-08-06T13:59:56;45.90;15.50
80958;DHT22;70419;42.700;23.316;2023-08-06T14:02:23;47.10;14.70
80958;DHT22;70419;42.700;23.316;2023-08-06T14:04:49;48.00;14.20
80958;DHT22;70419;42.700;23.316;2023-08-06T14:07:14;48.20;13.90
80958;DHT22;70419;42.700;23.316;2023-08-06T14:09:40;48.00;13.80
80958;DHT22;70419;42.700;23.316;2023-08-06T14:12:07;48.00;13.70
80958;DHT22;70419;42.700;23.316;2023-08-06T14:14:33;47.80;14.20
80958;DHT22;70419;42.700;23.316;2023-08-06T14:16:59;47.50;14.20
80958;DHT22;70419;42.700;23.316;2023-08-06T14:19:25;46.30;14.90
80958;DHT22;70419;42.700;23.316;2023-08-06T14:21:50;46.10;15.00
80958;DHT22;70419;42.700;23.316;2023-08-06T14:24:16;46.90;14.60
80958;DHT22;70419;42.700;23.316;2023-08-06T14:26:41;47.70;14.10
80958;DHT22;70419;42.700;23.316;2023-08-06T14:29:07;48.30;13.60
80958;DHT22;70419;42.700;23.316;2023-08-06T14:31:33;47.90;13.90
80958;DHT22;70419;42.700;23.316;2023-08-06T14:33:58;46.30;14.50
80958;DHT22;70419;42.700;23.316;2023-08-06T14:36:24;45.20;15.40
80958;DHT22;70419;42.700;23.316;2023-08-06T14:38:49;43.80;15.80
80958;DHT22;70419;42.700;23.316;2023-08-06T14:41:15;42.80;16.70
80958;DHT22;70419;42.700;23.316;2023-08-06T14:43:40;43.20;16.70
80958;DHT22;70419;42.700;23.316;2023-08-06T14:46:06;43.80;17.10
80958;DHT22;70419;42.700;23.316;2023-08-06T14:48:32;44.00;15.80
80958;DHT22;70419;42.700;23.316;2023-08-06T14:50:58;42.90;16.70
80958;DHT22;70419;42.700;23.316;2023-08-06T14:53:23;41.50;17.70
80958;DHT22;70419;42.700;23.316;2023-08-06T14:55:49;40.00;18.90
80958;DHT22;70419;42.700;23.316;2023-08-06T14:58:15;39.00;19.90
80958;DHT22;70419;42.700;23.316;2023-08-06T15:00:41;38.20;20.70
80958;DHT22;70419;42.700;23.316;2023-08-06T15:03:07;38.60;20.60
80958;DHT22;70419;42.700;23.316;2023-08-06T15:05:33;39.90;19.50
80958;DHT22;70419;42.700;23.316;2023-08-06T15:07:59;41.30;18.40
80958;DHT22;70419;42.700;23.316;2023-08-06T15:10:24;41.70;18.10
80958;DHT22;70419;42.700;23.316;2023-08-06T15:12:50;41.70;18.10
80958;DHT22;70419;42.700;23.316;2023-08-06T15:15:16;42.00;17.80
80958;DHT22;70419;42.700;23.316;2023-08-06T15:17:42;42.40;17.60